Time;durP1;ratioP1;P1;durP2;ratioP2;P2;SDS_P1;SDS_P2;PMS_P1;PMS_P2;Temp;Humidity;BMP_temperature;BMP_pressure;BME280_temperature;BME280_humidity;BME280_pressure;Samples;Min_cycle;Max_cycle;Signal;HPM_P1;HPM_P2
2021/08/19 00:01:05;;;;;;;2.35;0.70;;;;;;;;;;5010482;28;20042;-52
2021/08/19 00:03:32;;;;;;;1.60;0.70;;;;;;;;;;5000947;28;20050;-52
2021/08/19 00:05:58;;;;;;;1.25;0.70;;;;;;;;;;5007374;28;20030;-51
2021/08/19 00:08:25;;;;;;;1.20;0.80;;;;;;;;;;5010881;28;20050;-52
2021/08/19 00:10:52;;;;;;;2.47;0.90;;;;;;;;;;5007293;28;20034;-52
2021/08/19 00:13:19;;;;;;;4.97;1.13;;;;;;;;;;5007404;28;20056;-53
2021/08/19 00:15:45;;;;;;;1.85;0.80;;;;;;;;;;5003210;28;20056;-50
2021/08/19 00:18:12;;;;;;;0.70;0.70;;;;;;;;;;5007529;28;20078;-52
2021/08/19 00:20:39;;;;;;;0.80;0.80;;;;;;;;;;5010667;28;20056;-52
2021/08/19 00:23:06;;;;;;;1.65;0.80;;;;;;;;;;5006684;28;20038;-52
2021/08/19 00:25:32;;;;;;;2.17;0.80;;;;;;;;;;5006458;28;20054;-51
2021/08/19 00:27:59;;;;;;;1.00;0.70;;;;;;;;;;5004749;28;20061;-51
2021/08/19 00:30:26;;;;;;;1.00;0.90;;;;;;;;;;5013228;28;20489;-52
2021/08/19 00:32:53;;;;;;;2.65;0.80;;;;;;;;;;5009250;28;20038;-52
2021/08/19 00:35:21;;;;;;;0.70;0.70;;;;;;;;;;5008914;28;20402;-52
2021/08/19 00:37:47;;;;;;;2.25;0.80;;;;;;;;;;5005698;28;20058;-52
2021/08/19 00:40:14;;;;;;;0.80;0.80;;;;;;;;;;5008309;28;20057;-53
2021/08/19 00:42:41;;;;;;;1.48;0.60;;;;;;;;;;5013402;28;20089;-52
2021/08/19 00:45:08;;;;;;;1.67;0.80;;;;;;;;;;5008497;28;20042;-52
2021/08/19 00:47:38;;;;;;;1.10;0.80;;;;;;;;;;5001786;28;20112;-51
2021/08/19 00:50:05;;;;;;;1.48;0.70;;;;;;;;;;5012667;28;20053;-53
2021/08/19 00:52:33;;;;;;;0.82;0.82;;;;;;;;;;5010412;28;20026;-52
2021/08/19 00:55:00;;;;;;;0.80;0.80;;;;;;;;;;4996344;28;20423;-52
2021/08/19 00:57:27;;;;;;;0.70;0.70;;;;;;;;;;5009418;28;20074;-52
2021/08/19 00:59:53;;;;;;;0.80;0.80;;;;;;;;;;5005265;28;20042;-52
2021/08/19 01:02:20;;;;;;;1.88;1.00;;;;;;;;;;5004340;28;20667;-53
2021/08/19 01:04:48;;;;;;;3.08;0.90;;;;;;;;;;5010896;28;20034;-52
2021/08/19 01:07:15;;;;;;;0.80;0.80;;;;;;;;;;5011174;28;20054;-52
2021/08/19 01:09:42;;;;;;;0.80;0.80;;;;;;;;;;5009653;28;20045;-53
2021/08/19 01:12:10;;;;;;;0.80;0.80;;;;;;;;;;4990105;28;20042;-53
2021/08/19 01:14:37;;;;;;;0.90;0.90;;;;;;;;;;5000817;28;20046;-52
2021/08/19 01:17:06;;;;;;;1.33;0.80;;;;;;;;;;5008135;28;20050;-53
2021/08/19 01:19:33;;;;;;;0.80;0.80;;;;;;;;;;5001998;28;20042;-52
2021/08/19 01:21:59;;;;;;;0.90;0.90;;;;;;;;;;5009388;28;20041;-52
2021/08/19 01:24:26;;;;;;;0.70;0.70;;;;;;;;;;5009956;28;20100;-52
2021/08/19 01:26:53;;;;;;;1.70;0.80;;;;;;;;;;5012031;28;20049;-52
2021/08/19 01:29:19;;;;;;;0.98;0.98;;;;;;;;;;5010864;28;20100;-53
2021/08/19 01:32:00;;;;;;;1.02;0.90;;;;;;;;;;5003102;28;20446;-52
2021/08/19 01:34:28;;;;;;;1.08;0.90;;;;;;;;;;5005819;28;20043;-52
2021/08/19 01:36:54;;;;;;;1.48;0.98;;;;;;;;;;5009594;28;20133;-52
2021/08/19 01:39:21;;;;;;;1.38;0.85;;;;;;;;;;5010487;28;20084;-52
2021/08/19 01:41:48;;;;;;;1.83;0.80;;;;;;;;;;5006248;28;20042;-51
2021/08/19 01:44:16;;;;;;;0.80;0.80;;;;;;;;;;4994503;28;20042;-53
2021/08/19 01:46:43;;;;;;;0.90;0.90;;;;;;;;;;5003975;28;20042;-53
2021/08/19 01:49:10;;;;;;;1.10;0.80;;;;;;;;;;5008877;28;20475;-53
2021/08/19 01:51:37;;;;;;;1.15;1.00;;;;;;;;;;5009801;28;20072;-53
2021/08/19 01:54:04;;;;;;;0.90;0.90;;;;;;;;;;5007635;28;20049;-52
2021/08/19 01:56:31;;;;;;;1.20;0.80;;;;;;;;;;5007744;28;20045;-52
2021/08/19 01:58:57;;;;;;;0.75;0.75;;;;;;;;;;5010858;28;20053;-52
2021/08/19 02:01:25;;;;;;;0.73;0.73;;;;;;;;;;5010104;28;20038;-52
2021/08/19 02:03:52;;;;;;;0.80;0.80;;;;;;;;;;5002724;28;20393;-52
2021/08/19 02:06:20;;;;;;;1.33;1.00;;;;;;;;;;5008330;28;20518;-51
2021/08/19 02:08:47;;;;;;;2.85;0.80;;;;;;;;;;5008244;28;20038;-52
2021/08/19 02:11:14;;;;;;;1.05;0.70;;;;;;;;;;5010685;28;20045;-52
2021/08/19 02:13:41;;;;;;;0.70;0.70;;;;;;;;;;5008789;28;20444;-51
2021/08/19 02:16:08;;;;;;;1.05;0.80;;;;;;;;;;5008052;28;20474;-52
2021/08/19 02:18:35;;;;;;;0.70;0.70;;;;;;;;;;5009716;28;20053;-53
2021/08/19 02:21:02;;;;;;;1.38;0.90;;;;;;;;;;5008515;28;20113;-52
2021/08/19 02:23:28;;;;;;;0.80;0.80;;;;;;;;;;5005649;28;20125;-52
2021/08/19 02:25:55;;;;;;;2.83;0.82;;;;;;;;;;5008211;28;20080;-52
2021/08/19 02:28:22;;;;;;;1.63;1.00;;;;;;;;;;5008032;28;20038;-55
2021/08/19 02:30:49;;;;;;;0.80;0.80;;;;;;;;;;5010618;28;20419;-52
2021/08/19 02:33:15;;;;;;;0.80;0.80;;;;;;;;;;5007912;28;20050;-52
2021/08/19 02:35:42;;;;;;;1.27;0.90;;;;;;;;;;5005943;28;20042;-52
2021/08/19 02:38:09;;;;;;;0.90;0.90;;;;;;;;;;5006135;28;20071;-52
2021/08/19 02:40:36;;;;;;;0.80;0.80;;;;;;;;;;5004091;28;20042;-53
2021/08/19 02:43:03;;;;;;;1.58;0.80;;;;;;;;;;5004276;28;20555;-52
2021/08/19 02:45:30;;;;;;;0.90;0.80;;;;;;;;;;5005907;28;20045;-52
2021/08/19 02:47:57;;;;;;;1.17;1.17;;;;;;;;;;5007021;28;20044;-52
2021/08/19 02:50:24;;;;;;;1.23;0.90;;;;;;;;;;5007504;28;20101;-52
2021/08/19 02:52:51;;;;;;;0.80;0.80;;;;;;;;;;5009576;28;20649;-52
2021/08/19 02:55:19;;;;;;;0.80;0.80;;;;;;;;;;5006919;28;20398;-51
2021/08/19 02:57:45;;;;;;;0.70;0.70;;;;;;;;;;5009056;28;20068;-53
2021/08/19 03:00:12;;;;;;;0.80;0.80;;;;;;;;;;5011245;28;20529;-52
2021/08/19 03:02:39;;;;;;;0.88;0.88;;;;;;;;;;5008037;28;20414;-52
2021/08/19 03:05:07;;;;;;;1.20;0.80;;;;;;;;;;5006707;28;20081;-53
2021/08/19 03:07:34;;;;;;;0.98;0.80;;;;;;;;;;5005940;28;20045;-53
2021/08/19 03:10:00;;;;;;;0.75;0.75;;;;;;;;;;5007086;28;20501;-52
2021/08/19 03:12:27;;;;;;;1.50;0.80;;;;;;;;;;5008557;28;20501;-52
2021/08/19 03:14:54;;;;;;;0.90;0.90;;;;;;;;;;5001640;28;20050;-52
2021/08/19 03:17:21;;;;;;;0.90;0.90;;;;;;;;;;5005208;28;20124;-52
2021/08/19 03:19:47;;;;;;;4.07;1.27;;;;;;;;;;5009446;28;20054;-52
2021/08/19 03:22:15;;;;;;;1.20;0.90;;;;;;;;;;5010580;28;20069;-53
2021/08/19 03:24:41;;;;;;;1.65;0.80;;;;;;;;;;5010982;28;20401;-52
2021/08/19 03:27:10;;;;;;;0.80;0.80;;;;;;;;;;5013193;28;20041;-52
2021/08/19 03:29:38;;;;;;;1.30;0.93;;;;;;;;;;5011667;28;20042;-52
2021/08/19 03:32:05;;;;;;;0.80;0.80;;;;;;;;;;5013473;28;20026;-53
2021/08/19 03:34:32;;;;;;;1.85;1.17;;;;;;;;;;5012729;28;20352;-53
2021/08/19 03:37:03;;;;;;;0.90;0.90;;;;;;;;;;5010918;28;20491;-52
2021/08/19 03:39:30;;;;;;;0.93;0.93;;;;;;;;;;5013080;28;20046;-52
2021/08/19 03:41:57;;;;;;;0.80;0.80;;;;;;;;;;5010442;28;20046;-51
2021/08/19 03:44:23;;;;;;;0.80;0.80;;;;;;;;;;5003904;28;20104;-52
2021/08/19 03:46:50;;;;;;;0.93;0.80;;;;;;;;;;5009372;28;20043;-53
2021/08/19 03:49:17;;;;;;;0.80;0.80;;;;;;;;;;5008328;28;20056;-52
2021/08/19 03:51:44;;;;;;;0.90;0.90;;;;;;;;;;5012781;28;20042;-52
2021/08/19 03:54:12;;;;;;;1.05;1.05;;;;;;;;;;5012022;28;20045;-52
2021/08/19 03:56:39;;;;;;;1.95;0.90;;;;;;;;;;5012510;28;20062;-53
2021/08/19 03:59:09;;;;;;;0.77;0.75;;;;;;;;;;5007795;28;20415;-50
2021/08/19 04:01:36;;;;;;;1.02;0.93;;;;;;;;;;4998823;28;20041;-52
2021/08/19 04:04:03;;;;;;;1.65;0.82;;;;;;;;;;5002451;28;20045;-52
2021/08/19 04:06:30;;;;;;;0.80;0.80;;;;;;;;;;5004936;28;20034;-52
2021/08/19 04:08:56;;;;;;;1.60;1.50;;;;;;;;;;5001199;28;20049;-51
2021/08/19 04:11:23;;;;;;;2.45;0.90;;;;;;;;;;5011821;28;20066;-52
2021/08/19 04:13:50;;;;;;;1.63;0.90;;;;;;;;;;5009898;28;20034;-51
2021/08/19 04:16:18;;;;;;;2.63;0.90;;;;;;;;;;5004815;28;20050;-53
2021/08/19 04:18:44;;;;;;;0.90;0.90;;;;;;;;;;5008195;28;20758;-52
2021/08/19 04:21:11;;;;;;;1.00;1.00;;;;;;;;;;5020536;28;20042;-52
2021/08/19 04:23:42;;;;;;;1.55;0.90;;;;;;;;;;5008479;28;20487;-53
2021/08/19 04:26:11;;;;;;;0.90;0.90;;;;;;;;;;5002146;28;20425;-53
2021/08/19 04:28:38;;;;;;;0.90;0.90;;;;;;;;;;5007164;28;20046;-52
2021/08/19 04:31:04;;;;;;;3.72;1.00;;;;;;;;;;5010861;28;20045;-53
2021/08/19 04:33:31;;;;;;;1.33;1.23;;;;;;;;;;5005729;28;20423;-53
2021/08/19 04:35:58;;;;;;;1.65;1.10;;;;;;;;;;5012879;28;20054;-52
2021/08/19 04:38:24;;;;;;;0.95;0.95;;;;;;;;;;5010654;28;20050;-51
2021/08/19 04:40:51;;;;;;;1.00;1.00;;;;;;;;;;5011897;28;20037;-52
2021/08/19 04:43:18;;;;;;;1.10;1.00;;;;;;;;;;5012345;28;20109;-53
2021/08/19 04:45:45;;;;;;;3.13;1.00;;;;;;;;;;5010387;28;20042;-52
2021/08/19 04:48:11;;;;;;;0.98;0.98;;;;;;;;;;5011753;28;20048;-53
2021/08/19 04:50:38;;;;;;;0.80;0.80;;;;;;;;;;5010203;28;20050;-52
2021/08/19 04:53:05;;;;;;;2.67;0.90;;;;;;;;;;5000033;28;20129;-53
2021/08/19 04:55:32;;;;;;;1.35;1.00;;;;;;;;;;5009749;28;20498;-53
2021/08/19 04:57:58;;;;;;;0.80;0.80;;;;;;;;;;5010768;28;20135;-53
2021/08/19 05:00:25;;;;;;;1.70;0.90;;;;;;;;;;5009618;28;20038;-52
2021/08/19 05:02:52;;;;;;;0.95;0.90;;;;;;;;;;5005236;28;20030;-52
2021/08/19 05:05:20;;;;;;;0.80;0.80;;;;;;;;;;4998945;28;20065;-52
2021/08/19 05:07:47;;;;;;;1.08;0.80;;;;;;;;;;5007833;28;20053;-53
2021/08/19 05:10:13;;;;;;;1.08;0.90;;;;;;;;;;4994214;28;20049;-51
2021/08/19 05:12:40;;;;;;;1.23;0.90;;;;;;;;;;5010794;28;20100;-53
2021/08/19 05:15:07;;;;;;;0.82;0.82;;;;;;;;;;5004327;28;20081;-53
2021/08/19 05:17:33;;;;;;;1.33;0.90;;;;;;;;;;4998905;28;20038;-52
2021/08/19 05:20:00;;;;;;;1.23;0.85;;;;;;;;;;5007904;28;20038;-52
2021/08/19 05:22:27;;;;;;;1.25;1.00;;;;;;;;;;5009168;28;20099;-53
2021/08/19 05:24:54;;;;;;;2.10;0.90;;;;;;;;;;5010263;28;20040;-53
2021/08/19 05:27:20;;;;;;;3.42;1.00;;;;;;;;;;5010909;28;20121;-53
2021/08/19 05:29:47;;;;;;;1.00;1.00;;;;;;;;;;5000214;28;20042;-55
2021/08/19 05:32:14;;;;;;;0.90;0.90;;;;;;;;;;5003819;28;20041;-55
2021/08/19 05:34:40;;;;;;;0.95;0.95;;;;;;;;;;4994363;28;20352;-55
2021/08/19 05:37:07;;;;;;;1.05;1.05;;;;;;;;;;5008069;28;20108;-55
2021/08/19 05:39:34;;;;;;;1.15;0.90;;;;;;;;;;5008769;28;20509;-54
2021/08/19 05:42:01;;;;;;;0.98;0.98;;;;;;;;;;5008025;28;20076;-54
2021/08/19 05:44:27;;;;;;;0.80;0.80;;;;;;;;;;5012833;28;20049;-55
2021/08/19 05:46:54;;;;;;;1.08;0.80;;;;;;;;;;5010655;28;20079;-54
2021/08/19 05:49:21;;;;;;;0.88;0.88;;;;;;;;;;5009899;28;20073;-55
2021/08/19 05:51:48;;;;;;;2.05;0.80;;;;;;;;;;4993060;28;20494;-55
2021/08/19 05:54:15;;;;;;;0.90;0.90;;;;;;;;;;5003595;28;20053;-54
2021/08/19 05:56:42;;;;;;;5.25;0.90;;;;;;;;;;4998536;28;20073;-54
2021/08/19 05:59:09;;;;;;;4.13;1.02;;;;;;;;;;5010662;28;20128;-55
2021/08/19 06:01:37;;;;;;;1.52;1.00;;;;;;;;;;5009863;28;20367;-54
2021/08/19 06:04:04;;;;;;;1.98;0.80;;;;;;;;;;4995416;28;20070;-54
2021/08/19 06:06:30;;;;;;;1.65;0.70;;;;;;;;;;5005318;28;20113;-54
2021/08/19 06:08:57;;;;;;;1.95;0.70;;;;;;;;;;4998452;28;20042;-54
2021/08/19 06:11:24;;;;;;;2.28;0.80;;;;;;;;;;5011362;28;20104;-54
2021/08/19 06:13:51;;;;;;;3.20;0.73;;;;;;;;;;5009402;28;20521;-53
2021/08/19 06:16:17;;;;;;;1.00;1.00;;;;;;;;;;5005256;28;20045;-54
2021/08/19 06:18:44;;;;;;;2.65;0.80;;;;;;;;;;5005236;28;20153;-54
2021/08/19 06:21:11;;;;;;;2.22;0.95;;;;;;;;;;4993730;28;20042;-54
2021/08/19 06:23:38;;;;;;;3.50;0.80;;;;;;;;;;5010355;28;20125;-54
2021/08/19 06:26:06;;;;;;;1.00;0.70;;;;;;;;;;5009738;28;20046;-53
2021/08/19 06:28:33;;;;;;;0.60;0.60;;;;;;;;;;5001605;28;20045;-53
2021/08/19 06:31:00;;;;;;;2.70;0.90;;;;;;;;;;5004564;28;20049;-54
2021/08/19 06:33:26;;;;;;;1.80;0.60;;;;;;;;;;4992775;28;20132;-54
2021/08/19 06:35:53;;;;;;;3.30;0.60;;;;;;;;;;5010227;28;20488;-54
2021/08/19 06:38:20;;;;;;;0.70;0.70;;;;;;;;;;5008106;28;20065;-52
2021/08/19 06:40:47;;;;;;;3.55;0.70;;;;;;;;;;5005437;28;20379;-53
2021/08/19 06:43:13;;;;;;;0.70;0.70;;;;;;;;;;5003462;28;20062;-54
2021/08/19 06:45:40;;;;;;;0.70;0.70;;;;;;;;;;4994633;28;20088;-53
2021/08/19 06:48:07;;;;;;;0.85;0.85;;;;;;;;;;5008068;28;20557;-54
2021/08/19 06:50:34;;;;;;;1.00;1.00;;;;;;;;;;5007755;28;20092;-53
2021/08/19 06:53:00;;;;;;;1.80;0.70;;;;;;;;;;5008116;28;20034;-54
2021/08/19 06:55:32;;;;;;;2.38;0.80;;;;;;;;;;5002161;28;20036;-53
2021/08/19 06:57:58;;;;;;;1.83;0.63;;;;;;;;;;5004718;28;20109;-54
2021/08/19 07:00:25;;;;;;;2.05;0.70;;;;;;;;;;5005739;28;20035;-53
2021/08/19 07:02:52;;;;;;;1.02;0.70;;;;;;;;;;4992416;28;20034;-54
2021/08/19 07:05:19;;;;;;;3.40;0.80;;;;;;;;;;5009376;28;20041;-53
2021/08/19 07:07:46;;;;;;;4.20;0.70;;;;;;;;;;5007812;28;20046;-54
2021/08/19 07:10:13;;;;;;;2.75;1.08;;;;;;;;;;5003407;28;20042;-54
2021/08/19 07:12:40;;;;;;;2.10;0.70;;;;;;;;;;5004664;28;20041;-53
2021/08/19 07:15:07;;;;;;;4.60;0.85;;;;;;;;;;5008496;28;20470;-55
2021/08/19 07:17:34;;;;;;;0.70;0.70;;;;;;;;;;5002708;28;20050;-55
2021/08/19 07:20:01;;;;;;;0.95;0.85;;;;;;;;;;4999994;28;20430;-54
2021/08/19 07:22:27;;;;;;;1.23;0.70;;;;;;;;;;5009536;28;20046;-55
2021/08/19 07:24:54;;;;;;;0.70;0.70;;;;;;;;;;5008868;28;20474;-54
2021/08/19 07:27:21;;;;;;;2.60;0.90;;;;;;;;;;4998340;28;20046;-54
2021/08/19 07:29:48;;;;;;;0.70;0.70;;;;;;;;;;5002559;28;20072;-54
2021/08/19 07:32:19;;;;;;;3.13;0.63;;;;;;;;;;4996577;28;20045;-54
2021/08/19 07:34:47;;;;;;;9.35;8.60;;;;;;;;;;5008185;28;20410;-54
2021/08/19 07:37:14;;;;;;;0.70;0.70;;;;;;;;;;5008936;28;20037;-53
2021/08/19 07:39:40;;;;;;;3.00;0.70;;;;;;;;;;4993116;28;20411;-54
2021/08/19 07:42:07;;;;;;;0.88;0.70;;;;;;;;;;5006279;28;20050;-54
2021/08/19 07:44:35;;;;;;;3.15;0.68;;;;;;;;;;5007914;28;20038;-54
2021/08/19 07:47:02;;;;;;;0.60;0.60;;;;;;;;;;5001268;28;20088;-53
2021/08/19 07:49:28;;;;;;;0.60;0.60;;;;;;;;;;4999752;28;20081;-54
2021/08/19 07:51:55;;;;;;;1.88;0.60;;;;;;;;;;5005987;28;20132;-55
2021/08/19 07:54:22;;;;;;;0.60;0.60;;;;;;;;;;5006334;28;20059;-54
2021/08/19 07:56:49;;;;;;;0.60;0.60;;;;;;;;;;5008458;28;20060;-54
2021/08/19 07:59:15;;;;;;;0.50;0.50;;;;;;;;;;5003098;28;20438;-54
2021/08/19 08:01:42;;;;;;;0.60;0.60;;;;;;;;;;4997409;28;20359;-54
2021/08/19 08:04:09;;;;;;;1.58;0.60;;;;;;;;;;5005987;28;20093;-53
2021/08/19 08:06:37;;;;;;;0.50;0.50;;;;;;;;;;5007435;28;20529;-53
2021/08/19 08:09:04;;;;;;;0.70;0.70;;;;;;;;;;5007666;28;20038;-54
2021/08/19 08:11:31;;;;;;;1.90;0.50;;;;;;;;;;5007880;28;20042;-54
2021/08/19 08:13:58;;;;;;;0.60;0.60;;;;;;;;;;4999670;28;20053;-54
2021/08/19 08:16:24;;;;;;;3.55;0.50;;;;;;;;;;5011489;28;20093;-54
2021/08/19 08:18:51;;;;;;;0.50;0.50;;;;;;;;;;5003697;28;20030;-54
2021/08/19 08:21:18;;;;;;;0.65;0.50;;;;;;;;;;5012795;28;20125;-54
2021/08/19 08:23:45;;;;;;;0.50;0.50;;;;;;;;;;5008552;28;20078;-54
2021/08/19 08:26:12;;;;;;;0.55;0.50;;;;;;;;;;4996767;28;20061;-55
2021/08/19 08:28:39;;;;;;;2.83;0.50;;;;;;;;;;5004669;28;20061;-54
2021/08/19 08:31:07;;;;;;;0.75;0.50;;;;;;;;;;5007237;28;20120;-55
2021/08/19 08:33:35;;;;;;;0.50;0.50;;;;;;;;;;5013408;28;20052;-55
2021/08/19 08:36:01;;;;;;;2.40;0.50;;;;;;;;;;5010332;28;20529;-54
2021/08/19 08:38:30;;;;;;;0.50;0.50;;;;;;;;;;4993939;28;20417;-54
2021/08/19 08:40:57;;;;;;;0.50;0.50;;;;;;;;;;5012749;28;20044;-54
2021/08/19 08:43:26;;;;;;;0.70;0.70;;;;;;;;;;5007336;28;20065;-55
2021/08/19 08:45:54;;;;;;;1.33;0.55;;;;;;;;;;5004760;28;20405;-55
2021/08/19 08:48:23;;;;;;;0.50;0.50;;;;;;;;;;5006339;28;20078;-54
2021/08/19 08:50:51;;;;;;;0.40;0.40;;;;;;;;;;5011084;28;20096;-55
2021/08/19 08:53:18;;;;;;;1.23;0.40;;;;;;;;;;5011564;28;20050;-55
2021/08/19 08:55:45;;;;;;;0.40;0.40;;;;;;;;;;5010650;28;20678;-55
2021/08/19 08:58:12;;;;;;;0.40;0.40;;;;;;;;;;5000178;28;20069;-55
2021/08/19 09:00:43;;;;;;;0.50;0.50;;;;;;;;;;5004784;28;20034;-55
2021/08/19 09:03:11;;;;;;;0.80;0.43;;;;;;;;;;5004394;28;20049;-55
2021/08/19 09:05:40;;;;;;;0.40;0.30;;;;;;;;;;5010500;28;20041;-55
2021/08/19 09:08:12;;;;;;;0.40;0.40;;;;;;;;;;5010255;28;20073;-55
2021/08/19 09:10:39;;;;;;;2.22;0.30;;;;;;;;;;5004418;28;20038;-55
2021/08/19 09:13:26;;;;;;;0.40;0.40;;;;;;;;;;5009727;28;20100;-55
2021/08/19 09:15:53;;;;;;;0.30;0.30;;;;;;;;;;4998809;28;20053;-55
2021/08/19 09:18:28;;;;;;;1.98;0.38;;;;;;;;;;5009212;28;20038;-55
2021/08/19 09:20:54;;;;;;;0.30;0.30;;;;;;;;;;4998517;28;20387;-56
2021/08/19 09:23:21;;;;;;;0.30;0.30;;;;;;;;;;4999366;28;20042;-55
2021/08/19 09:25:48;;;;;;;0.30;0.30;;;;;;;;;;5005099;28;20053;-55
2021/08/19 09:28:19;;;;;;;0.68;0.40;;;;;;;;;;5002342;28;20053;-55
2021/08/19 09:30:47;;;;;;;0.30;0.30;;;;;;;;;;5010931;28;20042;-55
2021/08/19 09:33:16;;;;;;;2.75;0.73;;;;;;;;;;5009840;28;20084;-56
2021/08/19 09:35:43;;;;;;;0.30;0.30;;;;;;;;;;5000365;28;20062;-55
2021/08/19 09:38:20;;;;;;;0.70;0.30;;;;;;;;;;5004817;28;20041;-54
2021/08/19 09:41:05;;;;;;;0.40;0.30;;;;;;;;;;5010519;28;20478;-56
2021/08/19 09:43:55;;;;;;;0.52;0.38;;;;;;;;;;5002676;28;20073;-55
2021/08/19 09:46:28;;;;;;;0.30;0.30;;;;;;;;;;5005808;28;20041;-55
2021/08/19 09:48:55;;;;;;;0.30;0.30;;;;;;;;;;4993372;28;20038;-55
2021/08/19 09:51:24;;;;;;;0.30;0.30;;;;;;;;;;5008537;28;20042;-56
2021/08/19 09:53:52;;;;;;;1.10;0.30;;;;;;;;;;5000769;28;20034;-56
2021/08/19 09:56:27;;;;;;;0.52;0.30;;;;;;;;;;5010117;28;20069;-56
2021/08/19 09:58:54;;;;;;;0.47;0.30;;;;;;;;;;5008285;28;20038;-56
2021/08/19 10:01:22;;;;;;;0.40;0.40;;;;;;;;;;5010052;28;20340;-56
2021/08/19 10:03:49;;;;;;;0.30;0.30;;;;;;;;;;5008756;28;20034;-55
2021/08/19 10:06:16;;;;;;;0.30;0.30;;;;;;;;;;5009316;28;20053;-55
2021/08/19 10:08:43;;;;;;;0.30;0.30;;;;;;;;;;5008770;28;20359;-55
2021/08/19 10:11:10;;;;;;;0.30;0.30;;;;;;;;;;5009546;28;20049;-56
2021/08/19 10:13:37;;;;;;;1.08;0.30;;;;;;;;;;5004131;28;20034;-55
2021/08/19 10:16:05;;;;;;;0.77;0.30;;;;;;;;;;5006170;28;20043;-56
2021/08/19 10:18:35;;;;;;;0.20;0.20;;;;;;;;;;4999815;28;20038;-55
2021/08/19 10:21:08;;;;;;;0.30;0.30;;;;;;;;;;5004128;28;20042;-56
2021/08/19 10:23:56;;;;;;;0.30;0.30;;;;;;;;;;5008955;28;20080;-55
2021/08/19 10:26:23;;;;;;;1.17;0.32;;;;;;;;;;5008495;28;20042;-56
2021/08/19 10:28:51;;;;;;;0.22;0.22;;;;;;;;;;5010280;28;20213;-56
2021/08/19 10:31:41;;;;;;;0.30;0.30;;;;;;;;;;5004977;28;20207;-56
2021/08/19 10:34:09;;;;;;;0.30;0.30;;;;;;;;;;5009902;28;20045;-56
2021/08/19 10:36:38;;;;;;;0.68;0.30;;;;;;;;;;5006322;28;20037;-55
2021/08/19 10:39:20;;;;;;;0.20;0.20;;;;;;;;;;5000915;28;20074;-55
2021/08/19 10:41:48;;;;;;;0.30;0.30;;;;;;;;;;5006434;28;20042;-56
2021/08/19 10:44:31;;;;;;;0.30;0.30;;;;;;;;;;5000086;28;20053;-56
2021/08/19 10:46:58;;;;;;;0.30;0.30;;;;;;;;;;5013143;28;20433;-56
2021/08/19 10:49:51;;;;;;;0.30;0.30;;;;;;;;;;5008027;28;20054;-56
2021/08/19 10:52:21;;;;;;;0.30;0.30;;;;;;;;;;5007761;28;20042;-56
2021/08/19 10:54:50;;;;;;;0.30;0.30;;;;;;;;;;5009095;28;20045;-56
2021/08/19 10:57:24;;;;;;;0.30;0.30;;;;;;;;;;5002545;28;20045;-56
2021/08/19 10:59:57;;;;;;;0.30;0.30;;;;;;;;;;5006533;28;20053;-56
2021/08/19 11:02:56;;;;;;;0.40;0.40;;;;;;;;;;5006218;28;20526;-56
2021/08/19 11:05:26;;;;;;;0.30;0.30;;;;;;;;;;5007019;28;20116;-56
2021/08/19 11:07:53;;;;;;;0.30;0.30;;;;;;;;;;5006207;28;20062;-54
2021/08/19 11:10:23;;;;;;;0.22;0.22;;;;;;;;;;4999981;28;20096;-56
2021/08/19 11:12:50;;;;;;;4.60;0.30;;;;;;;;;;4997996;28;20057;-56
2021/08/19 11:15:17;;;;;;;0.30;0.30;;;;;;;;;;5003503;28;20057;-56
2021/08/19 11:17:51;;;;;;;0.30;0.30;;;;;;;;;;5005898;28;20046;-56
2021/08/19 11:20:25;;;;;;;0.30;0.30;;;;;;;;;;5005319;28;20049;-56
2021/08/19 11:23:08;;;;;;;0.30;0.30;;;;;;;;;;5001649;28;20380;-56
2021/08/19 11:25:36;;;;;;;0.30;0.30;;;;;;;;;;5004804;28;20057;-56
2021/08/19 11:28:08;;;;;;;0.50;0.30;;;;;;;;;;5005671;28;20137;-56
2021/08/19 11:30:36;;;;;;;0.28;0.28;;;;;;;;;;5004874;28;20061;-56
2021/08/19 11:33:09;;;;;;;0.30;0.30;;;;;;;;;;5004157;28;20076;-56
2021/08/19 11:35:37;;;;;;;0.30;0.30;;;;;;;;;;5002649;28;20606;-55
2021/08/19 11:38:12;;;;;;;0.20;0.20;;;;;;;;;;5005741;28;20120;-55
2021/08/19 11:40:40;;;;;;;0.20;0.20;;;;;;;;;;5000620;28;20050;-56
2021/08/19 11:43:22;;;;;;;0.40;0.40;;;;;;;;;;5006333;28;20037;-56
2021/08/19 11:46:07;;;;;;;0.22;0.22;;;;;;;;;;5013906;28;20042;-56
2021/08/19 11:48:34;;;;;;;0.30;0.30;;;;;;;;;;5012072;28;20045;-56
2021/08/19 11:51:02;;;;;;;0.30;0.30;;;;;;;;;;5005005;28;20549;-56
2021/08/19 11:53:29;;;;;;;0.30;0.30;;;;;;;;;;5008678;28;20074;-56
2021/08/19 11:56:09;;;;;;;0.30;0.30;;;;;;;;;;5011623;28;20088;-56
2021/08/19 11:58:35;;;;;;;0.30;0.30;;;;;;;;;;5010629;28;20632;-56
2021/08/19 12:01:05;;;;;;;0.20;0.20;;;;;;;;;;5010515;28;20044;-56
2021/08/19 12:03:36;;;;;;;3.95;0.30;;;;;;;;;;5010448;28;20089;-56
2021/08/19 12:06:06;;;;;;;0.40;0.40;;;;;;;;;;5009956;28;20048;-56
2021/08/19 12:08:34;;;;;;;0.30;0.30;;;;;;;;;;5008135;28;20045;-56
2021/08/19 12:11:04;;;;;;;0.30;0.30;;;;;;;;;;5012041;28;20042;-56
2021/08/19 12:13:33;;;;;;;0.30;0.30;;;;;;;;;;5011308;28;20398;-56
2021/08/19 12:16:00;;;;;;;1.00;0.30;;;;;;;;;;4995140;28;20049;-56
2021/08/19 12:18:27;;;;;;;0.30;0.30;;;;;;;;;;5006626;28;20046;-56
2021/08/19 12:21:12;;;;;;;0.73;0.30;;;;;;;;;;5010529;28;20042;-56
2021/08/19 12:23:39;;;;;;;0.30;0.30;;;;;;;;;;5011524;28;20053;-56
2021/08/19 12:26:10;;;;;;;3.00;0.30;;;;;;;;;;5007965;28;20776;-56
2021/08/19 12:28:37;;;;;;;0.20;0.20;;;;;;;;;;5017243;28;20064;-56
2021/08/19 12:31:07;;;;;;;1.17;0.30;;;;;;;;;;5013036;28;20049;-56
2021/08/19 12:33:37;;;;;;;1.65;0.25;;;;;;;;;;5010836;28;20038;-56
2021/08/19 12:36:21;;;;;;;1.08;0.30;;;;;;;;;;5018548;28;20065;-56
2021/08/19 12:38:48;;;;;;;3.20;0.30;;;;;;;;;;5011280;28;20313;-42
2021/08/19 12:41:19;;;;;;;0.20;0.20;;;;;;;;;;5004109;28;20516;-44
2021/08/19 12:43:47;;;;;;;1.40;0.30;;;;;;;;;;5013005;28;20045;-44
2021/08/19 12:46:14;;;;;;;0.30;0.30;;;;;;;;;;5008962;28;20406;-43
2021/08/19 12:48:42;;;;;;;0.57;0.30;;;;;;;;;;5003274;28;20125;-43
2021/08/19 12:51:26;;;;;;;0.30;0.30;;;;;;;;;;5007917;28;20081;-43
2021/08/19 12:54:20;;;;;;;3.97;0.20;;;;;;;;;;4994689;28;20046;-43
2021/08/19 12:56:59;;;;;;;0.30;0.30;;;;;;;;;;5012227;28;20074;-43
2021/08/19 12:59:26;;;;;;;0.30;0.30;;;;;;;;;;5003086;28;20053;-45
2021/08/19 13:01:54;;;;;;;0.30;0.30;;;;;;;;;;4993944;28;20502;-44
2021/08/19 13:04:21;;;;;;;0.30;0.30;;;;;;;;;;5010045;28;20045;-42
2021/08/19 13:06:48;;;;;;;0.30;0.30;;;;;;;;;;5008291;28;20064;-45
2021/08/19 13:09:14;;;;;;;0.30;0.30;;;;;;;;;;5002025;28;20097;-45
2021/08/19 13:11:41;;;;;;;0.30;0.30;;;;;;;;;;5004757;28;20654;-44
2021/08/19 13:14:08;;;;;;;1.00;0.30;;;;;;;;;;4996060;28;20042;-43
2021/08/19 13:16:35;;;;;;;0.20;0.20;;;;;;;;;;5008281;28;20100;-44
2021/08/19 13:19:02;;;;;;;0.20;0.20;;;;;;;;;;4995167;28;20058;-45
2021/08/19 13:21:29;;;;;;;0.30;0.30;;;;;;;;;;5003865;28;20065;-44
2021/08/19 13:23:56;;;;;;;0.30;0.30;;;;;;;;;;5001632;28;20058;-43
2021/08/19 13:26:23;;;;;;;0.25;0.25;;;;;;;;;;4997427;28;20088;-45
2021/08/19 13:28:50;;;;;;;1.05;0.20;;;;;;;;;;5006776;28;20038;-44
2021/08/19 13:31:16;;;;;;;0.57;0.28;;;;;;;;;;5010200;28;20130;-46
2021/08/19 13:33:43;;;;;;;0.20;0.20;;;;;;;;;;5011688;28;20526;-45
2021/08/19 13:36:10;;;;;;;0.30;0.30;;;;;;;;;;5007485;28;20033;-43
2021/08/19 13:38:37;;;;;;;0.30;0.30;;;;;;;;;;4999282;28;20050;-46
2021/08/19 13:41:03;;;;;;;0.25;0.20;;;;;;;;;;5010315;28;20490;-42
2021/08/19 13:43:30;;;;;;;0.30;0.30;;;;;;;;;;5007154;28;20043;-45
2021/08/19 13:45:58;;;;;;;0.20;0.20;;;;;;;;;;5005326;28;20093;-46
2021/08/19 13:48:25;;;;;;;0.20;0.20;;;;;;;;;;4996777;28;20046;-43
2021/08/19 13:50:51;;;;;;;0.35;0.30;;;;;;;;;;5010729;28;20050;-44
2021/08/19 13:53:20;;;;;;;0.30;0.30;;;;;;;;;;5007106;28;20038;-43
2021/08/19 13:55:47;;;;;;;0.30;0.30;;;;;;;;;;5004415;28;20109;-43
2021/08/19 13:58:14;;;;;;;0.32;0.32;;;;;;;;;;5006909;28;20104;-42
2021/08/19 14:00:40;;;;;;;0.40;0.30;;;;;;;;;;4995671;28;20121;-43
2021/08/19 14:03:08;;;;;;;0.65;0.63;;;;;;;;;;5008101;28;20049;-44
2021/08/19 14:05:34;;;;;;;0.30;0.30;;;;;;;;;;5009577;28;20029;-42
2021/08/19 14:08:01;;;;;;;1.13;0.20;;;;;;;;;;4996415;28;20070;-44
2021/08/19 14:10:28;;;;;;;1.00;0.30;;;;;;;;;;5006522;28;20395;-42
2021/08/19 14:13:10;;;;;;;0.20;0.20;;;;;;;;;;4994276;28;20453;-45
2021/08/19 14:15:38;;;;;;;0.20;0.20;;;;;;;;;;5010923;28;20041;-44
2021/08/19 14:18:04;;;;;;;1.20;0.30;;;;;;;;;;5009566;28;20520;-43
2021/08/19 14:20:31;;;;;;;0.20;0.20;;;;;;;;;;4998422;28;20045;-43
2021/08/19 14:22:58;;;;;;;0.28;0.20;;;;;;;;;;5007998;28;20037;-46
2021/08/19 14:25:25;;;;;;;0.28;0.28;;;;;;;;;;5010198;28;20425;-44
2021/08/19 14:27:52;;;;;;;1.55;0.20;;;;;;;;;;5009455;28;20034;-46
2021/08/19 14:30:19;;;;;;;0.20;0.20;;;;;;;;;;5008413;28;20052;-43
2021/08/19 14:32:46;;;;;;;0.20;0.20;;;;;;;;;;5010107;28;20577;-45
2021/08/19 14:35:13;;;;;;;1.23;0.30;;;;;;;;;;5008066;28;20088;-42
2021/08/19 14:37:40;;;;;;;0.30;0.30;;;;;;;;;;5010513;28;20486;-43
2021/08/19 14:40:07;;;;;;;0.30;0.30;;;;;;;;;;5007035;28;20104;-44
2021/08/19 14:42:34;;;;;;;0.20;0.20;;;;;;;;;;5008281;28;20026;-43
2021/08/19 14:45:00;;;;;;;0.30;0.30;;;;;;;;;;5010033;28;20071;-44
2021/08/19 14:47:27;;;;;;;0.20;0.20;;;;;;;;;;5008697;28;20121;-46
2021/08/19 14:49:54;;;;;;;0.40;0.30;;;;;;;;;;5002979;28;20053;-45